Time;durP1;ratioP1;P1;durP2;ratioP2;P2;SDS_P1;SDS_P2;PMS_P1;PMS_P2;Temp;Humidity;BMP_temperature;BMP_pressure;BME280_temperature;BME280_humidity;BME280_pressure;Samples;Min_cycle;Max_cycle;Signal;HPM_P1;HPM_P2
2021/05/17 00:00:28;;;;;;;6.50;3.20;;;;;;;;;;6273198;22;20385;-84
2021/05/17 00:02:56;;;;;;;3.30;3.00;;;;;;;;;;6245796;22;20369;-87
2021/05/17 00:05:22;;;;;;;3.92;3.10;;;;;;;;;;6245592;22;20421;-87
2021/05/17 00:07:48;;;;;;;5.30;3.10;;;;;;;;;;6246704;22;20381;-84
2021/05/17 00:10:14;;;;;;;5.72;3.55;;;;;;;;;;6246475;22;20795;-85
2021/05/17 00:12:41;;;;;;;4.60;3.30;;;;;;;;;;6273332;22;20335;-84
2021/05/17 00:15:10;;;;;;;4.57;3.00;;;;;;;;;;6245567;22;20367;-85
2021/05/17 00:17:37;;;;;;;3.47;3.17;;;;;;;;;;6272610;22;20335;-85
2021/05/17 00:20:05;;;;;;;6.75;3.22;;;;;;;;;;6246017;22;20339;-85
2021/05/17 00:22:31;;;;;;;4.43;3.20;;;;;;;;;;6246139;22;20375;-86
2021/05/17 00:24:57;;;;;;;4.35;3.22;;;;;;;;;;6245374;22;20350;-84
2021/05/17 00:27:23;;;;;;;5.45;3.30;;;;;;;;;;6272758;22;20808;-86
2021/05/17 00:29:50;;;;;;;4.82;3.38;;;;;;;;;;6245928;22;20343;-85
2021/05/17 00:32:16;;;;;;;3.88;3.25;;;;;;;;;;6245837;22;20370;-86
2021/05/17 00:34:42;;;;;;;4.82;3.35;;;;;;;;;;6245480;22;20362;-84
2021/05/17 00:37:08;;;;;;;4.15;3.33;;;;;;;;;;6245248;22;20400;-87
2021/05/17 00:39:34;;;;;;;5.30;3.00;;;;;;;;;;6245770;22;20797;-85
2021/05/17 00:42:02;;;;;;;6.20;3.30;;;;;;;;;;6246251;22;20351;-84
2021/05/17 00:44:28;;;;;;;5.43;3.75;;;;;;;;;;6273040;22;20350;-84
2021/05/17 00:46:55;;;;;;;4.63;3.28;;;;;;;;;;6271867;22;20335;-87
2021/05/17 00:49:21;;;;;;;5.10;3.45;;;;;;;;;;6272995;22;20427;-85
2021/05/17 00:51:47;;;;;;;5.78;3.42;;;;;;;;;;6245234;22;20342;-86
2021/05/17 00:54:13;;;;;;;6.15;3.65;;;;;;;;;;6245624;22;20415;-86
2021/05/17 00:56:41;;;;;;;5.57;4.22;;;;;;;;;;6245081;22;20846;-84
2021/05/17 00:59:07;;;;;;;4.55;3.60;;;;;;;;;;6272721;22;20347;-84
2021/05/17 01:01:34;;;;;;;4.03;3.67;;;;;;;;;;6245641;22;20346;-86
2021/05/17 01:04:00;;;;;;;3.65;3.35;;;;;;;;;;6245640;22;20378;-84
2021/05/17 01:06:30;;;;;;;4.10;3.50;;;;;;;;;;6245349;22;20392;-87
2021/05/17 01:08:56;;;;;;;4.85;3.83;;;;;;;;;;6273191;22;20356;-85
2021/05/17 01:11:25;;;;;;;6.37;3.90;;;;;;;;;;6272715;22;20373;-87
2021/05/17 01:13:51;;;;;;;3.75;3.25;;;;;;;;;;6244769;22;20435;-86
2021/05/17 01:16:17;;;;;;;6.80;4.20;;;;;;;;;;6272492;22;20330;-87
2021/05/17 01:18:43;;;;;;;4.28;3.88;;;;;;;;;;6272397;22;20330;-87
2021/05/17 01:21:10;;;;;;;4.78;4.00;;;;;;;;;;6244875;22;20350;-86
2021/05/17 01:23:49;;;;;;;4.30;3.67;;;;;;;;;;6272877;22;20361;-84
2021/05/17 01:26:15;;;;;;;5.43;4.15;;;;;;;;;;6244938;22;20373;-87
2021/05/17 01:28:43;;;;;;;4.73;3.80;;;;;;;;;;6244969;22;20736;-84
2021/05/17 01:31:10;;;;;;;3.90;3.50;;;;;;;;;;6245458;22;20441;-85
2021/05/17 01:33:38;;;;;;;4.13;3.73;;;;;;;;;;6272502;22;20424;-87
2021/05/17 01:36:05;;;;;;;5.22;3.67;;;;;;;;;;6271761;22;20335;-87
2021/05/17 01:38:31;;;;;;;4.40;3.23;;;;;;;;;;6245487;22;21125;-85
2021/05/17 01:40:57;;;;;;;3.95;3.53;;;;;;;;;;6245359;22;20350;-87
2021/05/17 01:43:24;;;;;;;3.60;3.20;;;;;;;;;;6272960;22;20346;-87
2021/05/17 01:45:51;;;;;;;5.35;3.65;;;;;;;;;;6272491;22;20338;-85
2021/05/17 01:48:26;;;;;;;3.80;3.42;;;;;;;;;;6272839;22;20472;-87
2021/05/17 01:50:52;;;;;;;3.63;3.33;;;;;;;;;;6245207;22;20433;-86
2021/05/17 01:53:18;;;;;;;3.60;3.30;;;;;;;;;;6244712;22;20414;-88
2021/05/17 01:55:44;;;;;;;4.28;3.30;;;;;;;;;;6271555;22;20331;-87
2021/05/17 01:58:20;;;;;;;3.90;3.47;;;;;;;;;;6245130;22;20673;-89
2021/05/17 02:00:46;;;;;;;4.07;3.60;;;;;;;;;;6272220;22;20380;-87
2021/05/17 02:03:12;;;;;;;3.85;3.50;;;;;;;;;;6244830;22;20674;-85
2021/05/17 02:05:38;;;;;;;3.90;3.50;;;;;;;;;;6244365;22;20377;-85
2021/05/17 02:08:06;;;;;;;3.92;3.63;;;;;;;;;;6271840;22;20454;-86
2021/05/17 02:10:32;;;;;;;4.40;3.30;;;;;;;;;;6272609;22;20377;-86
2021/05/17 02:12:59;;;;;;;3.50;3.20;;;;;;;;;;6272276;22;20388;-86
2021/05/17 02:15:26;;;;;;;3.77;3.43;;;;;;;;;;6271543;22;20366;-85
2021/05/17 02:18:02;;;;;;;4.65;3.40;;;;;;;;;;6271712;22;20335;-86
2021/05/17 02:20:30;;;;;;;3.75;3.45;;;;;;;;;;6244432;22;20716;-86
2021/05/17 02:22:58;;;;;;;3.90;3.40;;;;;;;;;;6271718;22;20342;-87
2021/05/17 02:25:24;;;;;;;3.08;2.85;;;;;;;;;;6270963;22;20327;-85
2021/05/17 02:27:50;;;;;;;3.22;2.92;;;;;;;;;;6244635;22;20431;-86
2021/05/17 02:30:16;;;;;;;5.00;3.28;;;;;;;;;;6244209;22;20347;-86
2021/05/17 02:32:42;;;;;;;5.30;3.42;;;;;;;;;;6244067;22;20433;-86
2021/05/17 02:35:09;;;;;;;3.78;3.10;;;;;;;;;;6243212;22;20370;-84
2021/05/17 02:37:35;;;;;;;3.60;3.30;;;;;;;;;;6244655;22;20343;-86
2021/05/17 02:40:02;;;;;;;3.97;3.55;;;;;;;;;;6244026;22;20397;-85
2021/05/17 02:42:29;;;;;;;3.92;3.30;;;;;;;;;;6243780;22;20409;-86
2021/05/17 02:44:57;;;;;;;4.00;3.58;;;;;;;;;;6271273;22;20342;-86
2021/05/17 02:47:24;;;;;;;3.95;3.55;;;;;;;;;;6270915;22;20414;-86
2021/05/17 02:49:52;;;;;;;3.70;3.20;;;;;;;;;;6270931;22;20341;-86
2021/05/17 02:52:18;;;;;;;3.78;3.22;;;;;;;;;;6270883;22;20331;-86
2021/05/17 02:54:54;;;;;;;4.32;3.92;;;;;;;;;;6271203;22;20363;-87
2021/05/17 02:57:26;;;;;;;5.63;4.00;;;;;;;;;;6242876;22;20339;-86
2021/05/17 02:59:58;;;;;;;4.03;3.72;;;;;;;;;;6243678;22;20804;-86
2021/05/17 03:02:29;;;;;;;4.22;3.88;;;;;;;;;;6270831;22;20434;-86
2021/05/17 03:04:57;;;;;;;4.70;4.00;;;;;;;;;;6243589;22;21072;-85
2021/05/17 03:07:25;;;;;;;4.32;3.92;;;;;;;;;;6243092;22;20830;-87
2021/05/17 03:09:51;;;;;;;4.82;4.45;;;;;;;;;;6243535;22;20935;-85
2021/05/17 03:12:21;;;;;;;6.50;4.60;;;;;;;;;;6270721;22;20777;-86
2021/05/17 03:14:49;;;;;;;5.25;4.00;;;;;;;;;;6270738;22;20421;-85
2021/05/17 03:17:16;;;;;;;4.78;4.30;;;;;;;;;;6243654;22;20404;-86
2021/05/17 03:19:42;;;;;;;4.95;4.20;;;;;;;;;;6243412;22;20339;-85
2021/05/17 03:22:09;;;;;;;4.43;4.03;;;;;;;;;;6270766;22;20835;-85
2021/05/17 03:24:36;;;;;;;3.90;3.60;;;;;;;;;;6243819;22;20348;-87
2021/05/17 03:27:22;;;;;;;4.90;4.40;;;;;;;;;;6242734;22;20351;-86
2021/05/17 03:29:49;;;;;;;6.38;4.30;;;;;;;;;;6270778;22;20330;-86
2021/05/17 03:32:15;;;;;;;4.50;4.10;;;;;;;;;;6270594;22;20341;-85
2021/05/17 03:34:41;;;;;;;4.85;4.10;;;;;;;;;;6243539;22;20367;-86
2021/05/17 03:37:07;;;;;;;6.22;4.95;;;;;;;;;;6245379;22;20405;-85
2021/05/17 03:39:33;;;;;;;4.60;4.20;;;;;;;;;;6272734;22;20338;-86
2021/05/17 03:41:59;;;;;;;4.93;4.53;;;;;;;;;;6245234;22;20347;-85
2021/05/17 03:44:25;;;;;;;5.97;5.18;;;;;;;;;;6272918;22;20343;-86
2021/05/17 03:46:51;;;;;;;6.93;5.10;;;;;;;;;;6245507;22;20748;-86
2021/05/17 03:49:17;;;;;;;5.10;4.60;;;;;;;;;;6245211;22;20349;-86
2021/05/17 03:51:43;;;;;;;5.40;4.85;;;;;;;;;;6272553;22;20339;-88
2021/05/17 03:54:09;;;;;;;5.35;4.85;;;;;;;;;;6272361;22;20369;-88
2021/05/17 03:56:35;;;;;;;7.63;4.93;;;;;;;;;;6244903;22;20349;-88
2021/05/17 03:59:01;;;;;;;6.07;5.03;;;;;;;;;;6245293;22;20351;-86
2021/05/17 04:01:27;;;;;;;4.70;4.20;;;;;;;;;;6272386;22;20347;-86
2021/05/17 04:03:55;;;;;;;4.70;4.15;;;;;;;;;;6245372;22;20343;-86
2021/05/17 04:06:26;;;;;;;4.30;3.90;;;;;;;;;;6245184;22;20700;-86
2021/05/17 04:14:22;;;;;;;4.90;4.50;;;;;;;;;;6272316;22;20923;-86
2021/05/17 04:16:48;;;;;;;5.10;4.03;;;;;;;;;;6244464;22;20354;-88
2021/05/17 04:19:14;;;;;;;5.63;4.28;;;;;;;;;;6244680;22;20373;-86
2021/05/17 04:21:40;;;;;;;4.13;3.83;;;;;;;;;;6272207;22;20339;-85
2021/05/17 04:24:07;;;;;;;4.68;3.80;;;;;;;;;;6272414;22;20406;-87
2021/05/17 04:26:33;;;;;;;4.13;3.80;;;;;;;;;;6244733;22;20354;-87
2021/05/17 04:28:59;;;;;;;4.63;4.05;;;;;;;;;;6244986;22;20835;-86
2021/05/17 04:31:25;;;;;;;5.18;4.50;;;;;;;;;;6272419;22;20862;-85
2021/05/17 04:33:51;;;;;;;4.63;4.10;;;;;;;;;;6244864;22;20457;-88
2021/05/17 04:36:17;;;;;;;4.97;3.90;;;;;;;;;;6244838;22;20407;-86
2021/05/17 04:38:44;;;;;;;6.82;4.50;;;;;;;;;;6244781;22;20342;-86
2021/05/17 04:41:10;;;;;;;6.00;4.53;;;;;;;;;;6272045;22;20347;-87
2021/05/17 04:43:36;;;;;;;4.72;4.10;;;;;;;;;;6272433;22;20400;-86
2021/05/17 04:46:02;;;;;;;5.80;4.72;;;;;;;;;;6272204;22;20344;-87
2021/05/17 04:48:28;;;;;;;4.38;3.97;;;;;;;;;;6272398;22;20867;-89
2021/05/17 04:50:54;;;;;;;4.90;4.50;;;;;;;;;;6271387;22;20339;-85
2021/05/17 04:53:20;;;;;;;4.73;4.23;;;;;;;;;;6273098;22;20343;-84
2021/05/17 04:55:46;;;;;;;5.23;4.40;;;;;;;;;;6255914;22;20345;-85
2021/05/17 04:58:12;;;;;;;7.50;4.27;;;;;;;;;;6278610;22;20396;-84
2021/05/17 05:00:38;;;;;;;5.77;4.10;;;;;;;;;;6252302;22;20835;-84
2021/05/17 05:03:04;;;;;;;5.70;3.80;;;;;;;;;;6275422;22;20749;-86
2021/05/17 05:05:30;;;;;;;5.35;3.30;;;;;;;;;;6245044;22;20351;-87
2021/05/17 05:07:56;;;;;;;5.15;3.05;;;;;;;;;;6245227;22;20355;-86
2021/05/17 05:10:22;;;;;;;4.85;3.15;;;;;;;;;;6244912;22;20339;-86
2021/05/17 05:12:48;;;;;;;5.68;3.17;;;;;;;;;;6244851;22;20674;-86
2021/05/17 05:15:14;;;;;;;3.75;2.95;;;;;;;;;;6244957;22;20458;-87
2021/05/17 05:17:40;;;;;;;5.40;2.83;;;;;;;;;;6272243;22;20361;-86
2021/05/17 05:20:07;;;;;;;4.07;2.70;;;;;;;;;;6245387;22;20380;-84
2021/05/17 05:22:35;;;;;;;3.50;2.38;;;;;;;;;;6272640;22;20330;-85
2021/05/17 05:25:01;;;;;;;3.33;2.50;;;;;;;;;;6244766;22;20374;-85
2021/05/17 05:27:40;;;;;;;3.78;2.40;;;;;;;;;;6244650;22;20347;-86
2021/05/17 05:32:54;;;;;;;4.60;2.10;;;;;;;;;;6282175;22;20357;-85
2021/05/17 05:35:20;;;;;;;4.07;2.08;;;;;;;;;;6244173;22;20447;-81
2021/05/17 05:37:47;;;;;;;3.85;1.77;;;;;;;;;;6273722;22;20331;-88
2021/05/17 05:40:13;;;;;;;3.00;1.77;;;;;;;;;;6272618;22;20375;-88
2021/05/17 05:42:39;;;;;;;2.00;1.73;;;;;;;;;;6245280;22;20493;-88
2021/05/17 05:45:10;;;;;;;2.27;1.60;;;;;;;;;;6246321;22;20342;-85
2021/05/17 05:47:38;;;;;;;2.58;1.58;;;;;;;;;;6246426;22;20355;-86
2021/05/17 05:50:05;;;;;;;2.45;1.70;;;;;;;;;;6245558;22;20349;-89
2021/05/17 05:52:31;;;;;;;2.92;1.40;;;;;;;;;;6271717;22;20335;-87
2021/05/17 05:55:03;;;;;;;3.38;1.30;;;;;;;;;;6245399;22;20408;-91
2021/05/17 05:57:29;;;;;;;3.03;1.27;;;;;;;;;;6273469;22;20343;-91
2021/05/17 05:59:55;;;;;;;1.98;1.20;;;;;;;;;;6272495;22;20388;-89
2021/05/17 06:02:24;;;;;;;2.67;1.10;;;;;;;;;;6273408;22;20349;-86
2021/05/17 06:04:50;;;;;;;3.88;1.05;;;;;;;;;;6246098;22;20382;-86
2021/05/17 06:07:16;;;;;;;2.43;1.33;;;;;;;;;;6245684;22;20346;-90
2021/05/17 06:09:42;;;;;;;3.90;1.30;;;;;;;;;;6246060;22;20370;-86
2021/05/17 06:12:08;;;;;;;1.65;1.20;;;;;;;;;;6246279;22;20450;-87
2021/05/17 06:14:36;;;;;;;2.65;1.23;;;;;;;;;;6246559;22;20378;-86
2021/05/17 06:17:02;;;;;;;3.55;1.40;;;;;;;;;;6243263;22;20373;-85
2021/05/17 06:19:28;;;;;;;3.95;1.20;;;;;;;;;;6271651;22;20393;-87
2021/05/17 06:21:54;;;;;;;1.83;1.30;;;;;;;;;;6273501;22;20329;-85
2021/05/17 06:24:21;;;;;;;2.65;1.30;;;;;;;;;;6245286;22;20835;-84
2021/05/17 06:26:47;;;;;;;3.25;1.20;;;;;;;;;;6273135;22;20350;-86
2021/05/17 06:29:13;;;;;;;1.90;0.90;;;;;;;;;;6243911;22;20347;-87
2021/05/17 06:31:45;;;;;;;1.65;1.08;;;;;;;;;;6244088;22;20375;-92
2021/05/17 06:34:11;;;;;;;2.58;1.17;;;;;;;;;;6243569;22;21160;-88
2021/05/17 06:36:44;;;;;;;2.63;1.13;;;;;;;;;;6270901;22;20346;-85
2021/05/17 06:39:12;;;;;;;1.52;0.90;;;;;;;;;;6243933;22;20343;-87
2021/05/17 06:41:38;;;;;;;2.17;0.90;;;;;;;;;;6243054;22;20351;-84
2021/05/17 06:44:06;;;;;;;3.47;1.00;;;;;;;;;;6269421;22;20361;-89
2021/05/17 06:46:32;;;;;;;2.30;1.00;;;;;;;;;;6243373;22;20362;-85
2021/05/17 06:49:04;;;;;;;2.13;1.00;;;;;;;;;;6243317;22;20441;-85
2021/05/17 06:51:32;;;;;;;1.90;1.00;;;;;;;;;;6269910;22;20402;-86
2021/05/17 06:54:00;;;;;;;13.07;1.30;;;;;;;;;;6242908;22;20419;-85
2021/05/17 06:59:04;;;;;;;4.63;0.93;;;;;;;;;;6273771;22;20450;-83
2021/05/17 07:01:31;;;;;;;1.75;1.10;;;;;;;;;;6271458;22;20396;-82
2021/05/17 07:03:57;;;;;;;2.13;1.00;;;;;;;;;;6270615;22;20417;-83
2021/05/17 07:06:26;;;;;;;1.95;1.00;;;;;;;;;;6271712;22;20868;-81
2021/05/17 07:14:12;;;;;;;3.00;1.10;;;;;;;;;;6283493;22;20393;-83
2021/05/17 07:16:38;;;;;;;2.28;1.20;;;;;;;;;;6237260;22;20353;-82
2021/05/17 07:19:04;;;;;;;2.43;1.20;;;;;;;;;;6271761;22;20335;-82
2021/05/17 07:24:15;;;;;;;3.80;1.30;;;;;;;;;;6270976;22;20432;-81
2021/05/17 07:26:42;;;;;;;2.90;1.30;;;;;;;;;;6269832;22;20785;-83
2021/05/17 07:29:10;;;;;;;3.92;1.33;;;;;;;;;;6243635;22;20421;-83
2021/05/17 07:31:37;;;;;;;2.42;1.10;;;;;;;;;;6243281;22;20347;-83
2021/05/17 07:34:04;;;;;;;3.85;1.38;;;;;;;;;;6270961;22;20370;-83
2021/05/17 07:36:31;;;;;;;3.55;1.60;;;;;;;;;;6269747;22;20331;-83
2021/05/17 07:38:57;;;;;;;2.67;1.70;;;;;;;;;;6243005;22;20370;-81
2021/05/17 07:41:23;;;;;;;2.70;1.30;;;;;;;;;;6269736;22;20361;-82
2021/05/17 07:43:49;;;;;;;3.08;1.23;;;;;;;;;;6271021;22;20335;-82
2021/05/17 07:46:16;;;;;;;3.47;1.40;;;;;;;;;;6269911;22;20330;-83
2021/05/17 07:51:26;;;;;;;3.15;1.20;;;;;;;;;;6271213;22;20338;-81
2021/05/17 07:53:52;;;;;;;3.00;1.13;;;;;;;;;;6271086;22;20453;-85
2021/05/17 07:56:18;;;;;;;2.85;1.30;;;;;;;;;;6271971;22;20421;-81
2021/05/17 07:58:45;;;;;;;3.77;1.50;;;;;;;;;;6271989;22;20793;-84
2021/05/17 08:01:11;;;;;;;1.63;1.05;;;;;;;;;;6272857;22;20367;-83
2021/05/17 08:03:38;;;;;;;2.63;1.27;;;;;;;;;;6272335;22;20362;-82
2021/05/17 08:06:04;;;;;;;2.67;1.30;;;;;;;;;;6271337;22;20422;-81
2021/05/17 08:08:30;;;;;;;7.15;1.48;;;;;;;;;;6270955;22;20326;-81
2021/05/17 08:10:56;;;;;;;3.35;1.33;;;;;;;;;;6271543;22;20342;-83
2021/05/17 08:13:22;;;;;;;2.80;1.52;;;;;;;;;;6271483;22;20335;-83
2021/05/17 08:15:48;;;;;;;2.97;1.33;;;;;;;;;;6244268;22;20353;-81
2021/05/17 08:18:14;;;;;;;4.80;1.40;;;;;;;;;;6271750;22;20345;-83
2021/05/17 08:20:40;;;;;;;3.38;1.40;;;;;;;;;;6271852;22;20775;-84
2021/05/17 08:23:07;;;;;;;5.70;1.40;;;;;;;;;;6244431;22;20863;-83
2021/05/17 08:25:33;;;;;;;5.47;1.25;;;;;;;;;;6244745;22;20335;-81
2021/05/17 08:27:59;;;;;;;3.15;1.63;;;;;;;;;;6270906;22;20334;-82
2021/05/17 08:30:25;;;;;;;2.92;1.40;;;;;;;;;;6272035;22;20418;-81
2021/05/17 08:32:52;;;;;;;3.47;1.23;;;;;;;;;;6273153;22;20347;-83
2021/05/17 08:35:18;;;;;;;2.88;1.27;;;;;;;;;;6271820;22;20373;-84
2021/05/17 08:37:44;;;;;;;3.65;1.20;;;;;;;;;;6272097;22;20762;-84
2021/05/17 08:40:10;;;;;;;2.58;1.38;;;;;;;;;;6244705;22;20433;-80
2021/05/17 08:42:36;;;;;;;4.17;1.20;;;;;;;;;;6245078;22;20386;-80
2021/05/17 08:45:03;;;;;;;2.58;1.30;;;;;;;;;;6272602;22;20339;-83
2021/05/17 08:47:29;;;;;;;3.50;1.60;;;;;;;;;;6244116;22;20457;-82
2021/05/17 08:49:55;;;;;;;2.42;1.35;;;;;;;;;;6272197;22;20383;-81
2021/05/17 08:52:20;;;;;;;3.23;1.40;;;;;;;;;;6244844;22;20347;-82
2021/05/17 08:54:46;;;;;;;2.20;1.00;;;;;;;;;;6271966;22;20365;-81
2021/05/17 08:57:15;;;;;;;2.55;1.00;;;;;;;;;;6244144;22;20357;-84
2021/05/17 08:59:41;;;;;;;3.03;1.10;;;;;;;;;;6272618;22;20781;-82
2021/05/17 09:02:07;;;;;;;3.95;1.67;;;;;;;;;;6271706;22;20469;-84
2021/05/17 09:04:33;;;;;;;3.88;1.30;;;;;;;;;;6244628;22;20350;-83
2021/05/17 09:06:59;;;;;;;3.70;1.20;;;;;;;;;;6243702;22;20811;-81
2021/05/17 09:09:27;;;;;;;4.25;1.40;;;;;;;;;;6271041;22;20358;-83
2021/05/17 09:11:58;;;;;;;3.90;1.17;;;;;;;;;;6244509;22;20418;-80
2021/05/17 09:14:24;;;;;;;3.55;1.17;;;;;;;;;;6244193;22;20843;-83
2021/05/17 09:16:52;;;;;;;2.60;1.57;;;;;;;;;;6271059;22;20339;-84
2021/05/17 09:19:19;;;;;;;2.53;1.63;;;;;;;;;;6244058;22;20346;-82
2021/05/17 09:22:00;;;;;;;4.40;1.67;;;;;;;;;;6271455;22;20661;-80
2021/05/17 09:24:33;;;;;;;3.17;1.30;;;;;;;;;;6243771;22;20343;-83
2021/05/17 09:26:59;;;;;;;2.95;1.30;;;;;;;;;;6243423;22;20784;-79
2021/05/17 09:29:27;;;;;;;3.28;1.30;;;;;;;;;;6271071;22;20346;-83
2021/05/17 09:31:53;;;;;;;3.53;1.50;;;;;;;;;;6245260;22;20809;-84
2021/05/17 09:34:19;;;;;;;1.77;1.17;;;;;;;;;;6243699;22;20457;-81
2021/05/17 09:36:47;;;;;;;2.15;1.20;;;;;;;;;;6270787;22;20334;-82
2021/05/17 09:39:13;;;;;;;3.30;1.40;;;;;;;;;;6272116;22;20710;-83
2021/05/17 09:41:51;;;;;;;2.58;1.20;;;;;;;;;;6271923;22;20365;-84
2021/05/17 09:44:21;;;;;;;4.43;1.10;;;;;;;;;;6246095;22;20354;-83
2021/05/17 09:47:09;;;;;;;1.42;0.93;;;;;;;;;;6245092;22;20647;-84
2021/05/17 09:49:50;;;;;;;1.95;1.00;;;;;;;;;;6276075;22;20335;-81
2021/05/17 09:52:16;;;;;;;2.22;1.05;;;;;;;;;;6276622;22;20797;-85
2021/05/17 09:54:52;;;;;;;3.30;1.00;;;;;;;;;;6275499;22;20447;-86
2021/05/17 09:57:23;;;;;;;2.90;1.10;;;;;;;;;;6248853;23;20412;-82
2021/05/17 09:59:51;;;;;;;2.85;1.20;;;;;;;;;;6217797;23;20451;-84
2021/05/17 10:02:29;;;;;;;1.52;1.02;;;;;;;;;;6244418;23;20333;-84
2021/05/17 10:04:56;;;;;;;4.47;1.30;;;;;;;;;;6240676;23;20340;-80
2021/05/17 10:07:23;;;;;;;1.70;1.05;;;;;;;;;;6240046;23;20356;-81
2021/05/17 10:09:50;;;;;;;2.10;1.02;;;;;;;;;;6240094;23;20341;-83
2021/05/17 10:12:16;;;;;;;3.30;1.02;;;;;;;;;;6214247;23;20862;-81
2021/05/17 10:14:42;;;;;;;2.30;1.00;;;;;;;;;;6240243;23;20368;-82
2021/05/17 10:17:08;;;;;;;2.08;0.85;;;;;;;;;;6213663;23;20419;-83
2021/05/17 10:19:34;;;;;;;2.87;1.10;;;;;;;;;;6233017;23;20332;-82
2021/05/17 10:22:00;;;;;;;2.45;0.98;;;;;;;;;;6240302;23;20843;-81
2021/05/17 10:24:26;;;;;;;2.63;1.20;;;;;;;;;;6240423;23;20477;-82
2021/05/17 10:26:53;;;;;;;1.35;0.63;;;;;;;;;;6240684;23;20810;-82
2021/05/17 10:29:19;;;;;;;1.55;0.90;;;;;;;;;;6213046;23;20718;-82
2021/05/17 10:31:54;;;;;;;1.40;0.80;;;;;;;;;;6240178;23;20332;-81
2021/05/17 10:34:20;;;;;;;1.52;0.80;;;;;;;;;;6240145;23;20414;-83
2021/05/17 10:36:46;;;;;;;1.13;0.82;;;;;;;;;;6240110;23;20405;-83
2021/05/17 10:39:13;;;;;;;1.95;0.85;;;;;;;;;;6239735;23;20336;-82
2021/05/17 10:41:58;;;;;;;2.13;1.00;;;;;;;;;;6213692;23;20328;-83
2021/05/17 10:46:51;;;;;;;1.67;1.00;;;;;;;;;;6241565;23;20344;-83
2021/05/17 10:49:22;;;;;;;2.05;1.00;;;;;;;;;;6242670;23;20348;-84
2021/05/17 10:51:48;;;;;;;2.20;0.90;;;;;;;;;;6242619;23;20358;-83
2021/05/17 10:54:22;;;;;;;1.40;1.00;;;;;;;;;;6215443;23;20751;-82
2021/05/17 10:56:59;;;;;;;1.80;0.88;;;;;;;;;;6242285;23;20336;-84
2021/05/17 11:02:28;;;;;;;1.15;0.70;;;;;;;;;;6243394;23;20351;-80
2021/05/17 11:04:56;;;;;;;2.50;1.20;;;;;;;;;;6243553;23;20390;-82
2021/05/17 11:07:26;;;;;;;2.92;1.10;;;;;;;;;;6246939;23;20332;-82
2021/05/17 11:09:52;;;;;;;1.65;0.98;;;;;;;;;;6246177;23;20343;-80
2021/05/17 11:12:38;;;;;;;3.35;1.00;;;;;;;;;;6243962;23;20674;-83
2021/05/17 11:15:07;;;;;;;2.40;1.00;;;;;;;;;;6169576;23;20386;-82
2021/05/17 11:17:52;;;;;;;2.72;0.90;;;;;;;;;;6243205;23;20349;-83
2021/05/17 11:20:36;;;;;;;3.10;1.20;;;;;;;;;;6241986;23;20336;-82
2021/05/17 11:23:02;;;;;;;3.50;1.50;;;;;;;;;;6242097;23;20675;-85
2021/05/17 11:25:48;;;;;;;2.10;1.02;;;;;;;;;;6214103;23;20347;-81
2021/05/17 11:28:14;;;;;;;1.97;1.10;;;;;;;;;;6214712;23;20348;-81
2021/05/17 11:30:41;;;;;;;2.00;1.00;;;;;;;;;;6214527;23;20344;-80
2021/05/17 11:33:16;;;;;;;2.40;1.00;;;;;;;;;;6241728;23;21234;-81
2021/05/17 11:36:01;;;;;;;1.63;0.90;;;;;;;;;;6241080;23;20361;-81
2021/05/17 11:38:28;;;;;;;2.05;1.05;;;;;;;;;;6239813;23;20439;-82
2021/05/17 11:40:54;;;;;;;1.83;1.05;;;;;;;;;;6240693;23;20376;-85
2021/05/17 11:43:21;;;;;;;3.15;1.00;;;;;;;;;;6214168;23;20351;-82
2021/05/17 11:45:48;;;;;;;1.98;1.00;;;;;;;;;;6214457;23;20344;-83
2021/05/17 11:48:14;;;;;;;1.88;1.15;;;;;;;;;;6241782;23;20332;-84
2021/05/17 11:50:40;;;;;;;1.55;1.05;;;;;;;;;;6241235;23;20799;-82
2021/05/17 11:53:11;;;;;;;3.60;1.00;;;;;;;;;;6241561;23;20345;-84
2021/05/17 11:55:51;;;;;;;3.57;1.10;;;;;;;;;;6241034;23;20457;-84
2021/05/17 11:58:24;;;;;;;1.63;0.90;;;;;;;;;;6212279;23;20352;-81
2021/05/17 12:01:10;;;;;;;1.33;1.10;;;;;;;;;;6240769;23;20359;-85
2021/05/17 12:03:42;;;;;;;3.10;1.10;;;;;;;;;;6214407;23;20342;-84
2021/05/17 12:06:08;;;;;;;2.60;0.95;;;;;;;;;;6241130;23;20786;-80
2021/05/17 12:08:37;;;;;;;3.13;1.30;;;;;;;;;;6213236;23;20345;-82
2021/05/17 12:11:10;;;;;;;3.53;1.20;;;;;;;;;;6240458;23;20340;-82
2021/05/17 12:13:43;;;;;;;1.77;0.80;;;;;;;;;;6212687;23;20340;-80
2021/05/17 12:16:21;;;;;;;2.38;1.00;;;;;;;;;;6213368;23;20340;-83
2021/05/17 12:18:48;;;;;;;3.88;1.20;;;;;;;;;;6212795;23;20376;-82
2021/05/17 12:21:14;;;;;;;1.58;1.15;;;;;;;;;;6240047;23;20340;-84
2021/05/17 12:23:47;;;;;;;3.30;1.20;;;;;;;;;;6214619;23;20896;-81
2021/05/17 12:26:13;;;;;;;2.30;1.10;;;;;;;;;;6240362;23;20336;-84
2021/05/17 12:28:40;;;;;;;2.17;1.00;;;;;;;;;;6238343;23;20352;-81
2021/05/17 12:31:06;;;;;;;2.27;1.10;;;;;;;;;;6208223;23;20363;-82
2021/05/17 12:33:40;;;;;;;2.80;1.35;;;;;;;;;;6238181;23;20791;-85
2021/05/17 12:36:06;;;;;;;5.28;1.00;;;;;;;;;;6210995;23;20344;-85
2021/05/17 12:38:32;;;;;;;1.88;1.20;;;;;;;;;;6211662;23;20352;-84
2021/05/17 12:40:58;;;;;;;2.28;0.93;;;;;;;;;;6211622;23;20380;-84
2021/05/17 12:43:26;;;;;;;2.50;1.10;;;;;;;;;;6237251;23;20799;-83
2021/05/17 12:45:55;;;;;;;2.38;1.02;;;;;;;;;;6211423;23;20340;-84
2021/05/17 12:48:39;;;;;;;4.72;1.17;;;;;;;;;;6238956;23;20424;-83
2021/05/17 12:51:18;;;;;;;1.80;0.93;;;;;;;;;;6211667;23;20359;-81
2021/05/17 12:53:45;;;;;;;1.75;1.10;;;;;;;;;;6238036;23;20364;-83
2021/05/17 12:56:22;;;;;;;2.10;1.10;;;;;;;;;;6210689;23;20380;-83
2021/05/17 12:58:48;;;;;;;4.05;1.20;;;;;;;;;;6209797;23;20419;-83
2021/05/17 13:01:16;;;;;;;3.70;1.00;;;;;;;;;;6237338;23;20813;-80
2021/05/17 13:03:43;;;;;;;2.30;1.00;;;;;;;;;;6239641;23;20795;-82
2021/05/17 13:06:18;;;;;;;1.23;0.90;;;;;;;;;;6239899;23;20336;-82
2021/05/17 13:08:45;;;;;;;3.13;0.97;;;;;;;;;;6239169;23;21094;-83
2021/05/17 13:11:13;;;;;;;3.33;1.00;;;;;;;;;;6240227;23;20363;-81
2021/05/17 13:13:51;;;;;;;2.92;1.00;;;;;;;;;;6239600;23;20334;-83
2021/05/17 13:16:23;;;;;;;2.20;1.00;;;;;;;;;;6239330;23;20348;-83
2021/05/17 13:30:13;;;;;;;2.53;1.13;;;;;;;;;;6239869;23;20398;-83
2021/05/17 13:32:40;;;;;;;1.95;1.10;;;;;;;;;;6239839;23;20427;-82
2021/05/17 13:35:08;;;;;;;3.35;1.08;;;;;;;;;;6212809;23;20661;-84
2021/05/17 13:37:34;;;;;;;1.88;1.05;;;;;;;;;;6212777;23;20352;-81
2021/05/17 13:40:00;;;;;;;1.80;0.90;;;;;;;;;;6237834;23;20390;-82
2021/05/17 13:42:27;;;;;;;3.47;1.13;;;;;;;;;;6240277;23;20340;-82
2021/05/17 13:44:53;;;;;;;3.13;1.10;;;;;;;;;;6212929;23;20340;-83
2021/05/17 13:47:19;;;;;;;1.50;1.00;;;;;;;;;;6240307;23;20344;-82
2021/05/17 13:49:45;;;;;;;2.20;0.85;;;;;;;;;;6240072;23;20815;-83
2021/05/17 13:52:11;;;;;;;2.00;1.20;;;;;;;;;;6240615;23;21171;-83
2021/05/17 13:54:37;;;;;;;4.55;1.40;;;;;;;;;;6240572;23;20892;-82
2021/05/17 13:57:03;;;;;;;2.45;1.10;;;;;;;;;;6214278;23;20339;-84
2021/05/17 13:59:30;;;;;;;2.65;1.10;;;;;;;;;;6239988;23;20348;-87
2021/05/17 14:01:56;;;;;;;3.97;1.15;;;;;;;;;;6238831;23;20336;-88
2021/05/17 14:04:25;;;;;;;6.07;1.40;;;;;;;;;;6239936;23;20408;-84
2021/05/17 14:06:51;;;;;;;3.15;1.15;;;;;;;;;;6239933;23;20427;-85
2021/05/17 14:09:20;;;;;;;4.75;1.10;;;;;;;;;;6240322;23;20369;-82
2021/05/17 14:11:47;;;;;;;2.87;1.10;;;;;;;;;;6240095;23;20345;-85
2021/05/17 14:14:14;;;;;;;2.20;1.00;;;;;;;;;;6213590;23;20441;-84
2021/05/17 14:16:40;;;;;;;1.67;0.95;;;;;;;;;;6241074;23;20340;-90
2021/05/17 14:19:06;;;;;;;2.42;1.20;;;;;;;;;;6240860;23;20332;-88
2021/05/17 14:21:32;;;;;;;1.75;0.95;;;;;;;;;;6214975;23;20375;-82
2021/05/17 14:23:59;;;;;;;2.35;0.90;;;;;;;;;;6242652;23;20340;-91
2021/05/17 14:26:25;;;;;;;1.58;0.98;;;;;;;;;;6242367;23;20347;-88
2021/05/17 14:28:51;;;;;;;1.35;1.05;;;;;;;;;;6214444;23;20719;-88
2021/05/17 14:31:19;;;;;;;1.38;0.88;;;;;;;;;;6240558;23;20379;-88
2021/05/17 14:33:46;;;;;;;1.80;0.88;;;;;;;;;;6215182;23;20344;-87
2021/05/17 14:36:12;;;;;;;1.75;0.85;;;;;;;;;;6241375;23;20390;-84
2021/05/17 14:38:38;;;;;;;3.03;0.82;;;;;;;;;;6240693;23;20351;-83
2021/05/17 14:41:04;;;;;;;6.25;1.48;;;;;;;;;;6240918;23;20333;-85
2021/05/17 14:43:31;;;;;;;2.50;1.50;;;;;;;;;;6240761;23;20340;-89
2021/05/17 14:45:57;;;;;;;3.25;0.85;;;;;;;;;;6213796;23;20375;-82
2021/05/17 14:48:24;;;;;;;2.40;0.98;;;;;;;;;;6240778;23;20345;-91
2021/05/17 14:50:50;;;;;;;4.22;1.45;;;;;;;;;;6240385;23;20337;-87
2021/05/17 14:53:16;;;;;;;2.95;1.30;;;;;;;;;;6240611;23;20337;-85
2021/05/17 14:55:42;;;;;;;2.00;0.80;;;;;;;;;;6240115;23;20734;-86
2021/05/17 14:58:09;;;;;;;4.82;1.25;;;;;;;;;;6214314;23;20344;-88
2021/05/17 15:00:35;;;;;;;5.15;1.20;;;;;;;;;;6245709;23;20395;-84
2021/05/17 15:03:02;;;;;;;4.17;1.10;;;;;;;;;;6241202;23;20340;-84
2021/05/17 15:05:28;;;;;;;3.92;1.10;;;;;;;;;;6240048;23;20341;-85
2021/05/17 15:07:56;;;;;;;5.07;1.45;;;;;;;;;;6239878;23;20345;-83
2021/05/17 15:10:23;;;;;;;4.15;1.20;;;;;;;;;;6212498;23;20428;-84
2021/05/17 15:12:49;;;;;;;5.07;1.20;;;;;;;;;;6239288;23;20363;-83
2021/05/17 15:15:17;;;;;;;6.40;1.40;;;;;;;;;;6239943;23;20368;-82
2021/05/17 15:17:43;;;;;;;4.10;1.63;;;;;;;;;;6240094;23;20817;-81
2021/05/17 15:20:10;;;;;;;2.87;1.10;;;;;;;;;;6212467;23;20376;-83
2021/05/17 15:22:37;;;;;;;3.70;1.40;;;;;;;;;;6239811;23;20640;-85
2021/05/17 15:25:04;;;;;;;5.05;1.60;;;;;;;;;;6212790;23;20344;-82